Reklama

Seznam meteostanic a jejich METAR

Vyhledat místa podle abecedy:
A B C D E F G H I J K L M N O P Q R S T U V W X Y Z

Filtrovat:

ID stanice:
a/nebo
Název místa (fulltext):
 
Místo (ID)Naposledy načteno 
Rarotonga I (NCRG) 19.11.2018 00:00 UTC Zobrazit METAR
NCRG 190000Z 08011KT 9999 SCT020 27/20 Q1011=3D METAR NCAT 190000Z AUTO 11004KT //// ////// Q1004=3D METAR NCMG 190000Z AUTO 01007KT //// ////// 26/19 Q1006=3D METAR NCMK 190000Z AUTO 02006KT //// ////// 25/22 Q1008=3D METAR NCMR 190000Z AUTO 09007KT //// ////// Q1009=3D METAR NCPY 190000Z AUTO 03009KT //// ////// 31/25 Q1009=3D METAR NCMH 190000Z AUTO 08003KT //// ////// 32/26 Q1009=3D METAR NCRK 190000Z AUTO 07003KT //// ////// 31/25 Q1009=3D MANEA MARETAPU | OPERATIONAL OBSERVER COOK ISLANDS METEOROLOGICAL SERVICE | MINISTRY OF TRANSPORT PHONE
Reykjavik (BIRK) 19.11.2018 01:00 UTC Zobrazit METAR
BIRK 190100Z 15019KT 9999 -RA FEW016 OVC032 10/07 Q1017
Riga (EVRA) 19.11.2018 00:50 UTC Zobrazit METAR
EVRA 190050Z 04010KT 9999 SCT015 BKN035 02/00 Q1033 R36/090095 NOSIG
Rimini (LIPR) 18.11.2018 23:50 UTC Zobrazit METAR
LIPR 182350Z AUTO 27007KT 9999 SCT034/// BKN063/// 06/01 Q1012
Riyadh (OERY) 14.11.2018 06:00 UTC Zobrazit METAR
OERY 140600Z 15015KT 4000 BR BKN020 SCT040 19/16 Q1016
Road Town (TUPJ) 19.11.2018 00:00 UTC Zobrazit METAR
TUPJ 190000Z 13005KT 10SM SCT019 27/22 A3003 RMK Q1016
Rodos (LGRP) 18.11.2018 20:50 UTC Zobrazit METAR
LGRP 182050Z VRB05KT 9999 FEW010 SCT020 19/15 Q1014 WS R25 NOSIG
Rome (LIRF) 19.11.2018 00:50 UTC Zobrazit METAR
LIRF 190050Z 07003KT CAVOK 06/02 Q1009 NOSIG
Roseau (TDCF) 18.11.2018 22:00 UTC Zobrazit METAR
TDCF 182200Z 14002KT 9999 -SHRA BKN016 25/23 Q1012
Rotterdam (EHRD) 19.11.2018 00:55 UTC Zobrazit METAR
EHRD 190055Z AUTO 06009KT 9000 NSC 03/02 Q1026 NOSIG
Rzeszow (EPRZ) 19.11.2018 01:00 UTC Zobrazit METAR
EPRZ 190100Z 06002KT 3500 BR BKN009 OVC016 M02/M04 Q1020
Reklama

Počasí na Váš email

Emaily jsou bez reklamy a bez spamu



Odhlásit newsletter

Reklama


Lunární kalendář

  • 23.11.
  • 30.11.
  • 07.12.
  • 15.12.



Reklama


Reklama
Povinné ručení
Reklama



Reklama